createdAt,value
2019-02-23T00:00:08.013Z,20.70
2019-02-23T00:05:05.179Z,19.90
2019-02-23T00:10:02.285Z,19.40
2019-02-23T00:14:59.204Z,17.67
2019-02-23T00:19:56.231Z,19.73
2019-02-23T00:24:54.187Z,19.00
2019-02-23T00:29:51.167Z,19.50
2019-02-23T00:34:48.156Z,20.00
2019-02-23T00:39:45.088Z,20.40
2019-02-23T00:44:42.131Z,21.07
2019-02-23T00:49:39.911Z,19.77
2019-02-23T00:54:36.901Z,21.33
2019-02-23T00:59:33.851Z,19.13
2019-02-23T01:04:30.814Z,19.10
2019-02-23T01:09:27.791Z,18.40
2019-02-23T01:14:24.757Z,20.93
2019-02-23T01:19:21.787Z,19.60
2019-02-23T01:24:18.754Z,20.03
2019-02-23T01:29:15.693Z,19.40
2019-02-23T01:34:12.645Z,20.17
2019-02-23T01:39:09.766Z,19.50
2019-02-23T01:44:06.721Z,20.30
2019-02-23T01:49:04.855Z,22.40
2019-02-23T01:54:01.959Z,19.83
2019-02-23T01:58:58.881Z,19.97
2019-02-23T02:03:55.869Z,20.13
2019-02-23T02:08:52.776Z,19.90
2019-02-23T02:13:49.762Z,22.07
2019-02-23T02:18:46.719Z,20.90
2019-02-23T02:23:43.706Z,21.13
2019-02-23T02:28:40.713Z,21.70
2019-02-23T02:34:04.299Z,20.27
2019-02-23T02:39:01.322Z,20.73
2019-02-23T02:43:58.340Z,19.47
2019-02-23T02:48:55.387Z,23.60
2019-02-23T02:53:52.351Z,22.07
2019-02-23T02:58:50.254Z,22.20
2019-02-23T03:03:47.206Z,22.80
2019-02-23T03:08:44.364Z,23.30
2019-02-23T03:13:41.350Z,22.93
2019-02-23T03:18:38.379Z,21.90
2019-02-23T03:23:35.380Z,21.23
2019-02-23T03:28:32.304Z,21.97
2019-02-23T03:33:29.283Z,21.23
2019-02-23T03:38:26.232Z,21.43
2019-02-23T03:43:23.180Z,21.97
2019-02-23T03:48:20.156Z,21.00
2019-02-23T03:53:17.184Z,19.43
2019-02-23T03:58:14.198Z,20.73
2019-02-23T04:03:11.239Z,21.93
2019-02-23T04:08:08.172Z,21.13
2019-02-23T04:13:05.226Z,22.37
2019-02-23T04:18:02.249Z,21.47
2019-02-23T04:22:59.288Z,20.97
2019-02-23T04:27:56.242Z,21.47
2019-02-23T04:32:53.378Z,21.23
2019-02-23T04:37:50.301Z,21.57
2019-02-23T04:42:47.298Z,20.37
2019-02-23T04:47:44.404Z,21.10
2019-02-23T04:52:41.496Z,21.67
2019-02-23T04:57:38.526Z,24.03
2019-02-23T05:02:35.529Z,25.93
2019-02-23T05:07:32.938Z,23.10
2019-02-23T05:12:29.923Z,22.70
2019-02-23T05:17:26.977Z,23.00
2019-02-23T05:22:23.974Z,22.87
2019-02-23T05:27:20.989Z,24.97
2019-02-23T05:32:18.069Z,24.97
2019-02-23T05:37:15.148Z,25.43
2019-02-23T05:42:14.027Z,25.60
2019-02-23T05:47:10.989Z,26.00
2019-02-23T05:52:08.255Z,28.67
2019-02-23T05:57:05.250Z,27.47
2019-02-23T06:02:02.345Z,28.60
2019-02-23T06:07:00.970Z,26.77
2019-02-23T06:11:58.083Z,32.97
2019-02-23T06:16:55.009Z,26.00
2019-02-23T06:21:54.100Z,35.13
2019-02-23T06:26:50.866Z,20.93
2019-02-23T06:31:48.065Z,20.07
2019-02-23T06:36:45.179Z,20.00
2019-02-23T06:41:42.289Z,18.30
2019-02-23T06:46:39.427Z,18.37
2019-02-23T06:51:36.562Z,17.73
2019-02-23T06:56:33.593Z,19.13
2019-02-23T07:01:31.751Z,14.63
2019-02-23T07:06:28.742Z,16.27
2019-02-23T07:11:25.757Z,15.63
2019-02-23T07:16:22.946Z,14.60
2019-02-23T07:21:19.933Z,14.90
2019-02-23T07:26:17.076Z,15.23
2019-02-23T07:31:14.181Z,16.70
2019-02-23T07:36:11.250Z,15.70
2019-02-23T07:41:10.135Z,17.10
2019-02-23T07:46:07.148Z,15.10
2019-02-23T07:51:04.218Z,12.50
2019-02-23T07:56:01.168Z,14.87
2019-02-23T08:00:58.169Z,13.87
2019-02-23T08:05:55.227Z,12.63
2019-02-23T08:10:54.232Z,12.03
2019-02-23T08:15:51.289Z,12.40
2019-02-23T08:20:49.337Z,13.07
2019-02-23T08:25:46.347Z,10.30
2019-02-23T08:30:43.446Z,10.60
2019-02-23T08:35:46.066Z,8.83
2019-02-23T08:40:43.236Z,9.47
2019-02-23T08:45:40.309Z,9.73
2019-02-23T08:50:39.266Z,8.50
2019-02-23T08:55:39.195Z,7.60
2019-02-23T09:00:38.033Z,13.67
2019-02-23T09:05:35.010Z,8.47
2019-02-23T09:10:32.270Z,9.77
2019-02-23T09:15:33.136Z,11.77
2019-02-23T09:20:30.156Z,11.00
2019-02-23T09:25:27.224Z,14.87
2019-02-23T09:30:24.187Z,10.23
2019-02-23T09:35:21.171Z,10.13
2019-02-23T09:40:21.188Z,7.80
2019-02-23T09:45:19.708Z,8.03
2019-02-23T09:50:19.711Z,9.30
2019-02-23T09:55:17.898Z,7.07
2019-02-23T10:00:16.850Z,8.47
2019-02-23T10:05:14.173Z,6.80
2019-02-23T10:10:13.267Z,7.60
2019-02-23T10:15:10.696Z,6.90
2019-02-23T10:20:12.112Z,9.07
2019-02-23T10:25:09.227Z,7.97
2019-02-23T10:30:15.348Z,7.60
2019-02-23T10:35:12.979Z,7.43
2019-02-23T10:40:11.450Z,14.57
2019-02-23T10:45:13.329Z,7.83
2019-02-23T10:50:14.335Z,9.50
2019-02-23T10:55:13.241Z,12.13
2019-02-23T11:00:21.838Z,7.93
2019-02-23T11:05:20.487Z,8.90
2019-02-23T11:10:19.686Z,7.07
2019-02-23T11:15:20.886Z,7.77
2019-02-23T11:20:18.598Z,8.47
2019-02-23T11:25:15.714Z,7.80
2019-02-23T11:30:16.135Z,7.83
2019-02-23T11:35:17.275Z,8.60
2019-02-23T11:40:17.793Z,10.53
2019-02-23T11:45:15.885Z,11.00
2019-02-23T11:50:13.615Z,9.90
2019-02-23T11:55:12.072Z,15.37
2019-02-23T12:00:13.862Z,9.27
2019-02-23T12:05:11.020Z,13.90
2019-02-23T12:10:11.435Z,8.70
2019-02-23T12:15:08.519Z,10.20
2019-02-23T12:20:09.773Z,8.47
2019-02-23T12:25:07.526Z,8.07
2019-02-23T12:30:07.825Z,8.53
2019-02-23T12:35:09.043Z,8.53
2019-02-23T12:40:07.997Z,9.37
2019-02-23T12:45:09.017Z,7.90
2019-02-23T12:50:09.903Z,8.13
2019-02-23T12:55:09.337Z,8.57
2019-02-23T13:00:16.591Z,9.40
2019-02-23T13:05:13.716Z,7.23
2019-02-23T13:10:12.788Z,7.97
2019-02-23T13:15:20.658Z,7.27
2019-02-23T13:20:35.220Z,7.73
2019-02-23T13:26:05.127Z,8.13
2019-02-23T13:31:33.712Z,8.43
2019-02-23T13:37:05.648Z,10.30
2019-02-23T13:42:22.586Z,7.57
2019-02-23T13:47:32.042Z,11.60
2019-02-23T13:53:05.803Z,9.53
2019-02-23T13:58:22.566Z,9.73
2019-02-23T14:04:02.591Z,8.77
2019-02-23T14:09:39.724Z,8.77
2019-02-23T14:14:47.892Z,9.90
2019-02-23T14:20:37.976Z,8.53
2019-02-23T14:26:07.572Z,14.30
2019-02-23T14:31:39.940Z,10.80
2019-02-23T14:41:49.451Z,10.17
2019-02-23T14:47:15.916Z,10.70
2019-02-23T14:52:50.168Z,15.80
2019-02-23T14:58:22.714Z,54.17
2019-02-23T15:03:28.683Z,15.70
2019-02-23T15:08:53.144Z,29.10
2019-02-23T15:14:24.704Z,36.53
2019-02-23T15:19:42.043Z,13.77
2019-02-23T15:25:30.754Z,16.33
2019-02-23T15:30:33.300Z,14.33
2019-02-23T15:35:59.724Z,15.63
2019-02-23T15:41:32.571Z,21.07
2019-02-23T15:46:41.035Z,25.73
2019-02-23T15:51:40.349Z,35.73
2019-02-23T15:56:37.528Z,22.23
2019-02-23T16:01:34.570Z,39.90
2019-02-23T16:06:31.849Z,135.40
2019-02-23T16:11:28.817Z,58.20
2019-02-23T16:16:25.782Z,27.40
2019-02-23T16:21:23.076Z,16.53
2019-02-23T16:26:20.140Z,201.23
2019-02-23T16:31:17.285Z,80.97
2019-02-23T16:36:15.753Z,19.87
2019-02-23T16:41:12.791Z,17.07
2019-02-23T16:46:09.799Z,19.40
2019-02-23T16:51:06.939Z,19.20
2019-02-23T16:56:04.443Z,18.57
2019-02-23T17:01:04.148Z,16.63
2019-02-23T17:06:00.390Z,15.47
2019-02-23T17:10:57.344Z,16.57
2019-02-23T17:15:54.521Z,44.77
2019-02-23T17:20:51.468Z,54.73
2019-02-23T17:25:48.453Z,35.20
2019-02-23T17:30:45.704Z,29.50
2019-02-23T17:35:42.647Z,28.33
2019-02-23T17:40:39.654Z,25.37
2019-02-23T17:45:36.595Z,38.07
2019-02-23T17:50:33.588Z,37.00
2019-02-23T17:55:30.745Z,85.80
2019-02-23T18:00:28.797Z,58.87
2019-02-23T18:05:28.427Z,55.83
2019-02-23T18:10:25.555Z,52.00
2019-02-23T18:15:22.629Z,48.03
2019-02-23T18:20:19.780Z,71.27
2019-02-23T18:25:17.273Z,76.20
2019-02-23T18:30:15.552Z,58.83
2019-02-23T18:35:15.155Z,68.57
2019-02-23T18:40:12.334Z,69.70
2019-02-23T18:45:09.332Z,75.77
2019-02-23T18:50:07.290Z,94.77
2019-02-23T18:55:06.634Z,94.43
2019-02-23T19:00:08.892Z,112.80
2019-02-23T19:05:09.982Z,118.83
2019-02-23T19:10:10.772Z,77.17
2019-02-23T19:15:11.044Z,75.83
2019-02-23T19:20:13.548Z,80.43
2019-02-23T19:25:10.752Z,64.73
2019-02-23T19:30:13.781Z,63.43
2019-02-23T19:35:11.103Z,52.80
2019-02-23T19:40:08.817Z,54.97
2019-02-23T19:45:10.552Z,64.47
2019-02-23T19:50:12.465Z,46.73
2019-02-23T19:55:14.299Z,51.80
2019-02-23T20:06:33.131Z,45.47
2019-02-23T20:11:30.255Z,42.43
2019-02-23T20:16:27.304Z,50.30
2019-02-23T20:21:26.331Z,46.27
2019-02-23T20:26:23.310Z,55.80
2019-02-23T20:31:20.494Z,53.03
2019-02-23T20:36:17.663Z,50.37
2019-02-23T20:41:14.811Z,58.63
2019-02-23T20:46:11.853Z,55.80
2019-02-23T20:51:08.932Z,84.10
2019-02-23T20:56:05.879Z,129.40
2019-02-23T21:01:04.812Z,116.37
2019-02-23T21:06:01.797Z,195.97
2019-02-23T21:10:59.047Z,163.43
2019-02-23T21:15:57.042Z,129.90
2019-02-23T21:20:54.028Z,140.87
2019-02-23T21:25:51.031Z,186.67
2019-02-23T21:30:48.210Z,242.73
2019-02-23T21:35:45.210Z,173.00
2019-02-23T21:40:42.190Z,119.17
2019-02-23T21:45:39.238Z,93.80
2019-02-23T21:50:36.641Z,87.13
2019-02-23T21:55:33.711Z,61.50
2019-02-23T22:00:31.039Z,60.83
2019-02-23T22:05:30.354Z,42.47
2019-02-23T22:10:27.384Z,32.47
2019-02-23T22:15:24.589Z,36.73
2019-02-23T22:20:21.642Z,47.07
2019-02-23T22:25:20.401Z,49.07
2019-02-23T22:30:18.484Z,52.03
2019-02-23T22:35:15.441Z,75.53
2019-02-23T22:40:12.536Z,86.53
2019-02-23T22:45:09.477Z,71.57
2019-02-23T22:50:07.692Z,68.77
2019-02-23T22:55:05.236Z,70.10
2019-02-23T23:00:02.625Z,92.17
2019-02-23T23:04:59.577Z,83.83
2019-02-23T23:09:56.742Z,138.27
2019-02-23T23:14:53.931Z,130.10
2019-02-23T23:19:51.000Z,131.30
2019-02-23T23:24:47.951Z,116.30
2019-02-23T23:29:45.015Z,138.17
2019-02-23T23:34:41.993Z,126.90
2019-02-23T23:39:39.036Z,101.50
2019-02-23T23:44:36.048Z,95.03
2019-02-23T23:49:33.111Z,114.17
2019-02-23T23:54:30.079Z,105.60
2019-02-23T23:59:27.052Z,107.57
